createdAt,value
2023-03-27T00:01:13.475Z,86.40
2023-03-27T00:03:41.374Z,86.38
2023-03-27T00:06:11.706Z,86.52
2023-03-27T00:08:39.257Z,86.57
2023-03-27T00:11:07.208Z,86.61
2023-03-27T00:13:35.383Z,86.48
2023-03-27T00:16:03.275Z,86.47
2023-03-27T00:18:30.891Z,86.40
2023-03-27T00:20:59.148Z,86.38
2023-03-27T00:23:28.545Z,86.41
2023-03-27T00:25:56.948Z,86.32
2023-03-27T00:28:26.055Z,86.34
2023-03-27T00:30:54.938Z,86.36
2023-03-27T00:33:23.799Z,86.26
2023-03-27T00:35:51.967Z,86.33
2023-03-27T00:38:20.209Z,86.41
2023-03-27T00:40:48.964Z,86.27
2023-03-27T00:43:34.172Z,86.18
2023-03-27T00:46:24.522Z,86.25
2023-03-27T00:48:52.644Z,86.22
2023-03-27T00:51:23.762Z,86.33
2023-03-27T00:53:52.341Z,86.28
2023-03-27T00:56:19.925Z,86.37
2023-03-27T00:58:54.164Z,86.39
2023-03-27T01:01:24.725Z,86.43
2023-03-27T01:03:53.702Z,86.59
2023-03-27T01:06:21.800Z,86.72
2023-03-27T01:08:49.572Z,86.60
2023-03-27T01:11:29.340Z,86.58
2023-03-27T01:14:05.865Z,86.82
2023-03-27T01:16:52.868Z,87.00
2023-03-27T01:19:26.247Z,87.08
2023-03-27T01:21:56.589Z,87.14
2023-03-27T01:24:37.015Z,87.29
2023-03-27T01:27:43.090Z,87.26
2023-03-27T01:30:24.124Z,87.18
2023-03-27T01:33:38.321Z,87.24
2023-03-27T01:36:28.697Z,87.45
2023-03-27T01:39:14.424Z,87.54
2023-03-27T01:41:41.953Z,87.70
2023-03-27T01:44:23.689Z,87.85
2023-03-27T01:47:01.661Z,87.85
2023-03-27T01:49:37.100Z,87.76
2023-03-27T01:52:10.211Z,87.81
2023-03-27T01:54:44.105Z,87.83
2023-03-27T01:57:22.740Z,88.07
2023-03-27T02:00:18.628Z,88.07
2023-03-27T02:02:53.281Z,88.07
2023-03-27T02:05:28.301Z,88.09
2023-03-27T02:08:20.298Z,88.07
2023-03-27T02:10:56.380Z,88.22
2023-03-27T02:13:27.501Z,88.31
2023-03-27T02:15:58.658Z,88.27
2023-03-27T02:18:34.811Z,88.41
2023-03-27T02:21:03.390Z,88.41
2023-03-27T02:23:30.988Z,88.42
2023-03-27T02:25:59.789Z,88.45
2023-03-27T02:29:01.668Z,88.53
2023-03-27T02:32:12.981Z,88.45
2023-03-27T02:34:56.559Z,88.58
2023-03-27T02:37:49.300Z,88.59
2023-03-27T02:40:44.806Z,88.59
2023-03-27T02:43:21.684Z,88.39
2023-03-27T02:45:54.554Z,88.41
2023-03-27T02:48:24.965Z,88.40
2023-03-27T02:50:58.994Z,88.29
2023-03-27T02:53:30.126Z,88.44
2023-03-27T02:56:02.583Z,88.42
2023-03-27T02:58:52.493Z,88.49
2023-03-27T03:01:21.913Z,88.62
2023-03-27T03:03:58.265Z,88.65
2023-03-27T03:06:26.023Z,88.70
2023-03-27T03:08:53.596Z,88.81
2023-03-27T03:11:21.928Z,88.89
2023-03-27T03:13:49.512Z,89.00
2023-03-27T03:16:17.105Z,89.15
2023-03-27T03:18:44.702Z,89.28
2023-03-27T03:21:12.297Z,89.24
2023-03-27T03:23:39.877Z,89.10
2023-03-27T03:26:07.633Z,89.32
2023-03-27T03:28:35.209Z,89.31
2023-03-27T03:31:02.871Z,89.52
2023-03-27T03:33:31.227Z,89.35
2023-03-27T03:35:58.782Z,89.28
2023-03-27T03:38:27.697Z,89.53
2023-03-27T03:40:57.722Z,89.43
2023-03-27T03:43:27.417Z,89.34
2023-03-27T03:45:55.598Z,89.52
2023-03-27T03:48:23.753Z,89.39
2023-03-27T03:50:51.364Z,89.26
2023-03-27T03:53:21.078Z,89.27
2023-03-27T03:55:51.978Z,89.30
2023-03-27T03:58:19.770Z,89.35
2023-03-27T04:00:47.353Z,89.25
2023-03-27T04:03:15.696Z,89.28
2023-03-27T04:05:43.355Z,89.29
2023-03-27T04:08:10.964Z,89.27
2023-03-27T04:10:39.966Z,89.43
2023-03-27T04:13:07.533Z,89.35
2023-03-27T04:15:35.121Z,89.28
2023-03-27T04:18:03.262Z,89.23
2023-03-27T04:20:30.876Z,89.38
2023-03-27T04:22:58.454Z,89.39
2023-03-27T04:25:26.024Z,89.29
2023-03-27T04:27:53.585Z,89.44
2023-03-27T04:30:23.515Z,89.41
2023-03-27T04:32:53.161Z,89.50
2023-03-27T04:35:21.753Z,89.59
2023-03-27T04:37:49.283Z,89.38
2023-03-27T04:40:17.210Z,89.28
2023-03-27T04:42:45.333Z,89.36
2023-03-27T04:45:15.301Z,89.47
2023-03-27T04:47:43.464Z,89.49
2023-03-27T04:50:12.080Z,89.37
2023-03-27T04:52:39.668Z,89.44
2023-03-27T04:55:07.641Z,89.47
2023-03-27T04:57:35.223Z,89.49
2023-03-27T05:00:04.665Z,89.32
2023-03-27T05:02:32.262Z,89.52
2023-03-27T05:04:59.890Z,89.39
2023-03-27T05:07:27.724Z,89.35
2023-03-27T05:09:55.431Z,89.26
2023-03-27T05:12:23.044Z,89.13
2023-03-27T05:14:50.636Z,89.12
2023-03-27T05:17:18.230Z,89.25
2023-03-27T05:19:46.221Z,89.10
2023-03-27T05:22:13.788Z,89.10
2023-03-27T05:24:41.380Z,89.06
2023-03-27T05:27:09.021Z,88.90
2023-03-27T05:29:46.977Z,88.94
2023-03-27T05:32:15.358Z,88.93
2023-03-27T05:34:43.025Z,88.67
2023-03-27T05:37:10.581Z,88.50
2023-03-27T05:39:38.206Z,88.51
2023-03-27T05:42:05.818Z,88.28
2023-03-27T05:44:33.389Z,88.35
2023-03-27T05:47:00.952Z,88.33
2023-03-27T05:49:28.559Z,88.30
2023-03-27T05:51:56.258Z,88.27
2023-03-27T05:54:24.417Z,88.29
2023-03-27T05:56:52.091Z,88.18
2023-03-27T05:59:19.690Z,88.05
2023-03-27T06:01:47.704Z,87.89
2023-03-27T06:04:16.563Z,87.86
2023-03-27T06:06:44.871Z,87.86
2023-03-27T06:09:12.526Z,87.78
2023-03-27T06:11:40.124Z,87.51
2023-03-27T06:14:07.675Z,87.43
2023-03-27T06:16:35.254Z,87.52
2023-03-27T06:19:02.836Z,87.54
2023-03-27T06:21:30.411Z,87.62
2023-03-27T06:23:57.986Z,87.60
2023-03-27T06:26:25.539Z,87.53
2023-03-27T06:28:53.259Z,87.47
2023-03-27T06:31:20.890Z,87.29
2023-03-27T06:33:48.489Z,87.39
2023-03-27T06:36:16.124Z,87.30
2023-03-27T06:38:43.728Z,87.08
2023-03-27T06:41:11.327Z,87.29
2023-03-27T06:43:38.926Z,87.12
2023-03-27T06:46:06.973Z,87.11
2023-03-27T06:48:34.694Z,87.18
2023-03-27T06:51:02.332Z,87.22
2023-03-27T06:53:32.112Z,87.24
2023-03-27T06:56:03.318Z,87.37
2023-03-27T06:58:30.950Z,87.24
2023-03-27T07:00:58.790Z,87.17
2023-03-27T07:03:26.412Z,87.27
2023-03-27T07:05:54.132Z,87.23
2023-03-27T07:08:24.868Z,87.31
2023-03-27T07:11:09.995Z,87.05
2023-03-27T07:13:39.875Z,87.14
2023-03-27T07:16:08.668Z,86.97
2023-03-27T07:18:36.330Z,86.87
2023-03-27T07:21:04.009Z,86.53
2023-03-27T07:23:31.705Z,86.35
2023-03-27T07:26:00.548Z,85.99
2023-03-27T07:28:28.294Z,85.94
2023-03-27T07:30:56.277Z,85.75
2023-03-27T07:33:24.244Z,85.46
2023-03-27T07:35:51.938Z,85.19
2023-03-27T07:38:19.514Z,85.13
2023-03-27T07:40:47.080Z,85.28
2023-03-27T07:43:14.660Z,85.23
2023-03-27T07:45:42.532Z,85.20
2023-03-27T07:48:13.680Z,85.05
2023-03-27T07:50:41.781Z,84.79
2023-03-27T07:53:09.479Z,84.73
2023-03-27T07:55:57.385Z,84.21
2023-03-27T07:58:25.677Z,83.90
2023-03-27T08:00:53.384Z,83.99
2023-03-27T08:03:21.547Z,83.81
2023-03-27T08:05:54.705Z,84.07
2023-03-27T08:08:22.398Z,83.97
2023-03-27T08:10:50.850Z,83.63
2023-03-27T08:13:18.456Z,83.71
2023-03-27T08:15:46.213Z,83.50
2023-03-27T08:18:13.822Z,82.92
2023-03-27T08:20:41.540Z,83.05
2023-03-27T08:23:09.171Z,82.92
2023-03-27T08:25:36.790Z,82.88
2023-03-27T08:28:04.362Z,82.78
2023-03-27T08:30:32.082Z,83.35
2023-03-27T08:32:59.719Z,82.86
2023-03-27T08:35:27.370Z,83.45
2023-03-27T08:37:54.962Z,83.97
2023-03-27T08:40:29.618Z,83.75
2023-03-27T08:43:03.646Z,83.60
2023-03-27T08:45:45.136Z,82.92
2023-03-27T08:48:21.214Z,82.38
2023-03-27T08:51:38.079Z,82.60
2023-03-27T08:54:18.866Z,82.51
2023-03-27T08:56:46.581Z,82.49
2023-03-27T08:59:21.256Z,82.35
2023-03-27T09:02:03.736Z,82.03
2023-03-27T09:04:50.970Z,82.58
2023-03-27T09:07:41.727Z,82.60
2023-03-27T09:10:30.764Z,82.49
2023-03-27T09:13:13.186Z,82.89
2023-03-27T09:15:49.608Z,83.13
2023-03-27T09:18:23.504Z,83.60
2023-03-27T09:20:55.906Z,83.64
2023-03-27T09:23:37.971Z,83.02
2023-03-27T09:26:31.018Z,82.86
2023-03-27T09:29:06.453Z,81.93
2023-03-27T09:31:56.877Z,80.68
2023-03-27T09:34:26.557Z,81.54
2023-03-27T09:36:54.828Z,81.22
2023-03-27T09:39:28.052Z,80.75
2023-03-27T09:42:07.997Z,81.08
2023-03-27T09:44:39.699Z,81.06
2023-03-27T09:47:20.903Z,80.55
2023-03-27T09:50:24.107Z,80.40
2023-03-27T09:52:52.772Z,80.16
2023-03-27T09:55:25.633Z,79.56
2023-03-27T09:57:55.249Z,79.04
2023-03-27T10:00:34.331Z,78.99
2023-03-27T10:03:05.782Z,79.11
2023-03-27T10:05:35.074Z,78.15
2023-03-27T10:08:31.040Z,78.58
2023-03-27T10:10:59.422Z,78.39
2023-03-27T10:13:28.941Z,78.71
2023-03-27T10:16:06.233Z,78.65
2023-03-27T10:18:41.032Z,78.38
2023-03-27T10:21:11.646Z,78.14
2023-03-27T10:23:46.369Z,78.65
2023-03-27T10:26:18.459Z,78.56
2023-03-27T10:28:50.996Z,78.27
2023-03-27T10:31:33.215Z,78.52
2023-03-27T10:34:03.666Z,78.45
2023-03-27T10:36:36.826Z,78.75
2023-03-27T10:39:14.002Z,78.71
2023-03-27T10:41:41.777Z,78.83
2023-03-27T10:44:18.315Z,78.64
2023-03-27T10:46:46.548Z,78.89
2023-03-27T10:49:49.880Z,78.40
2023-03-27T10:52:31.355Z,78.40
2023-03-27T10:55:25.089Z,76.49
2023-03-27T10:57:57.739Z,76.43
2023-03-27T11:00:30.160Z,75.32
2023-03-27T11:03:31.675Z,74.93
2023-03-27T11:06:03.291Z,73.88
2023-03-27T11:08:46.757Z,73.20
2023-03-27T11:11:28.156Z,73.08
2023-03-27T11:14:00.646Z,72.99
2023-03-27T11:16:41.281Z,71.49
2023-03-27T11:19:11.895Z,71.04
2023-03-27T11:21:46.954Z,71.37
2023-03-27T11:24:30.561Z,71.16
2023-03-27T11:27:22.743Z,70.56
2023-03-27T11:29:59.616Z,70.23
2023-03-27T11:32:39.039Z,69.92
2023-03-27T11:35:17.553Z,70.35
2023-03-27T11:37:53.744Z,69.82
2023-03-27T11:40:27.321Z,69.59
2023-03-27T11:42:55.130Z,69.74
2023-03-27T11:45:32.322Z,69.90
2023-03-27T11:48:11.936Z,69.79
2023-03-27T11:50:47.632Z,70.09
2023-03-27T11:53:33.199Z,70.01
2023-03-27T11:56:19.603Z,69.00
2023-03-27T11:59:15.095Z,69.00
2023-03-27T12:02:04.011Z,69.61
2023-03-27T12:05:02.799Z,69.64
2023-03-27T12:08:01.722Z,68.84
2023-03-27T12:10:34.885Z,69.70
2023-03-27T12:13:34.844Z,68.99
2023-03-27T12:16:27.562Z,68.24
2023-03-27T12:19:27.964Z,67.63
2023-03-27T12:22:21.109Z,67.47
2023-03-27T12:25:02.777Z,66.91
2023-03-27T12:27:53.919Z,66.61
2023-03-27T12:30:36.646Z,66.94
2023-03-27T12:33:32.058Z,66.16
2023-03-27T12:36:03.719Z,65.57
2023-03-27T12:38:35.988Z,64.78
2023-03-27T12:41:09.645Z,64.24
2023-03-27T12:43:38.500Z,64.29
2023-03-27T12:46:24.377Z,64.37
2023-03-27T12:49:07.106Z,64.43
2023-03-27T12:51:57.980Z,63.98
2023-03-27T12:54:28.436Z,62.97
2023-03-27T12:57:21.391Z,63.49
2023-03-27T12:59:49.057Z,64.53
2023-03-27T13:02:22.372Z,63.34
2023-03-27T13:05:24.119Z,62.95
2023-03-27T13:08:03.029Z,63.35
2023-03-27T13:10:49.148Z,63.24
2023-03-27T13:13:35.144Z,63.27
2023-03-27T13:16:42.626Z,61.72
2023-03-27T13:19:17.784Z,61.74
2023-03-27T13:22:12.788Z,62.18
2023-03-27T13:25:18.697Z,61.42
2023-03-27T13:27:49.054Z,60.69
2023-03-27T13:30:38.731Z,61.27
2023-03-27T13:33:23.319Z,61.07
2023-03-27T13:36:18.859Z,59.75
2023-03-27T13:38:52.697Z,59.79
2023-03-27T13:41:49.812Z,60.00
2023-03-27T13:44:45.943Z,59.81
2023-03-27T13:47:32.541Z,59.98
2023-03-27T13:50:34.859Z,58.63
2023-03-27T13:53:26.320Z,58.15
2023-03-27T13:56:15.466Z,58.70
2023-03-27T13:58:54.894Z,58.69
2023-03-27T14:01:46.521Z,58.71
2023-03-27T14:04:50.433Z,58.99
2023-03-27T14:07:48.768Z,58.92
2023-03-27T14:11:09.304Z,58.78
2023-03-27T14:13:42.485Z,58.79
2023-03-27T14:16:37.475Z,58.96
2023-03-27T14:19:08.000Z,59.31
2023-03-27T14:22:14.019Z,59.48
2023-03-27T14:24:46.377Z,58.97
2023-03-27T14:27:20.368Z,59.55
2023-03-27T14:29:59.762Z,58.94
2023-03-27T14:32:27.417Z,59.13
2023-03-27T14:34:55.168Z,59.56
2023-03-27T14:37:27.739Z,58.59
2023-03-27T14:39:58.392Z,58.83
2023-03-27T14:42:32.826Z,58.61
2023-03-27T14:45:17.223Z,58.35
2023-03-27T14:47:49.485Z,57.61
2023-03-27T14:50:17.372Z,58.05
2023-03-27T14:52:44.989Z,57.20
2023-03-27T14:55:14.952Z,57.32
2023-03-27T14:57:42.664Z,56.64
2023-03-27T15:00:22.927Z,57.03
2023-03-27T15:02:52.993Z,56.29
2023-03-27T15:05:22.241Z,56.55
2023-03-27T15:07:50.450Z,56.21
2023-03-27T15:10:24.642Z,56.29
2023-03-27T15:12:53.724Z,56.51
2023-03-27T15:15:37.236Z,56.19
2023-03-27T15:18:12.528Z,56.43
2023-03-27T15:20:40.225Z,56.53
2023-03-27T15:23:16.853Z,56.25
2023-03-27T15:25:55.759Z,56.76
2023-03-27T15:29:15.991Z,55.90
2023-03-27T15:31:44.666Z,55.82
2023-03-27T15:34:27.260Z,55.44
2023-03-27T15:37:00.367Z,55.47
2023-03-27T15:39:28.106Z,56.08
2023-03-27T15:42:10.561Z,55.72
2023-03-27T15:44:38.205Z,55.19
2023-03-27T15:47:23.873Z,53.44
2023-03-27T15:50:16.760Z,52.70
2023-03-27T15:52:52.117Z,51.14
2023-03-27T15:55:44.178Z,50.91
2023-03-27T15:58:24.130Z,50.13
2023-03-27T16:01:03.041Z,50.26
2023-03-27T16:03:46.582Z,50.75
2023-03-27T16:06:25.619Z,50.67
2023-03-27T16:08:53.862Z,50.77
2023-03-27T16:11:35.624Z,50.79
2023-03-27T16:14:03.231Z,50.64
2023-03-27T16:16:33.689Z,50.62
2023-03-27T16:19:12.207Z,49.52
2023-03-27T16:21:54.013Z,49.53
2023-03-27T16:24:21.584Z,49.79
2023-03-27T16:26:50.220Z,49.33
2023-03-27T16:29:18.643Z,47.53
2023-03-27T16:31:46.328Z,47.95
2023-03-27T16:34:21.958Z,48.51
2023-03-27T16:36:51.041Z,48.77
2023-03-27T16:39:18.617Z,49.13
2023-03-27T16:41:46.265Z,49.46
2023-03-27T16:44:13.871Z,50.45
2023-03-27T16:46:41.599Z,50.96
2023-03-27T16:49:11.867Z,49.88
2023-03-27T16:51:39.341Z,50.27
2023-03-27T16:54:06.900Z,50.46
2023-03-27T16:56:34.738Z,50.08
2023-03-27T16:59:02.635Z,50.53
2023-03-27T17:01:30.472Z,51.41
2023-03-27T17:03:58.477Z,51.95
2023-03-27T17:06:26.072Z,52.37
2023-03-27T17:08:53.967Z,52.29
2023-03-27T17:11:21.858Z,52.84
2023-03-27T17:13:50.291Z,53.27
2023-03-27T17:16:17.974Z,53.62
2023-03-27T17:18:45.795Z,53.41
2023-03-27T17:21:13.361Z,54.11
2023-03-27T17:23:40.926Z,54.47
2023-03-27T17:26:13.483Z,54.88
2023-03-27T17:28:42.325Z,54.61
2023-03-27T17:31:10.014Z,55.07
2023-03-27T17:33:38.004Z,55.34
2023-03-27T17:36:10.527Z,55.34
2023-03-27T17:38:38.657Z,55.49
2023-03-27T17:41:06.529Z,55.86
2023-03-27T17:43:34.408Z,55.90
2023-03-27T17:46:02.484Z,56.00
2023-03-27T17:48:33.499Z,56.69
2023-03-27T17:51:08.949Z,56.78
2023-03-27T17:53:38.872Z,56.75
2023-03-27T17:56:07.768Z,55.83
2023-03-27T17:58:35.749Z,56.21
2023-03-27T18:01:14.814Z,56.16
2023-03-27T18:03:43.369Z,56.46
2023-03-27T18:06:11.005Z,56.75
2023-03-27T18:08:39.315Z,56.68
2023-03-27T18:11:09.107Z,56.57
2023-03-27T18:13:37.508Z,56.72
2023-03-27T18:16:07.425Z,56.30
2023-03-27T18:18:36.497Z,56.40
2023-03-27T18:21:04.192Z,56.70
2023-03-27T18:23:32.167Z,56.97
2023-03-27T18:26:03.500Z,56.70
2023-03-27T18:28:31.054Z,56.96
2023-03-27T18:31:01.200Z,56.87
2023-03-27T18:33:30.077Z,56.79
2023-03-27T18:35:58.494Z,56.69
2023-03-27T18:38:27.826Z,57.00
2023-03-27T18:40:56.726Z,57.01
2023-03-27T18:43:24.535Z,57.23
2023-03-27T18:46:03.605Z,57.24
2023-03-27T18:48:31.515Z,57.90
2023-03-27T18:51:05.348Z,58.20
2023-03-27T18:53:33.010Z,58.03
2023-03-27T18:56:01.966Z,58.45
2023-03-27T18:58:30.254Z,58.50
2023-03-27T19:00:58.430Z,59.25
2023-03-27T19:03:27.502Z,59.19
2023-03-27T19:06:00.104Z,59.46
2023-03-27T19:08:28.081Z,59.67
2023-03-27T19:10:55.990Z,59.91
2023-03-27T19:13:24.954Z,59.94
2023-03-27T19:15:52.628Z,60.03
2023-03-27T19:18:20.192Z,60.47
2023-03-27T19:20:47.818Z,60.66
2023-03-27T19:23:15.371Z,60.72
2023-03-27T19:25:47.787Z,61.12
2023-03-27T19:28:15.704Z,61.10
2023-03-27T19:30:43.552Z,61.08
2023-03-27T19:33:11.213Z,61.59
2023-03-27T19:35:39.055Z,61.58
2023-03-27T19:38:06.654Z,62.06
2023-03-27T19:40:34.304Z,62.36
2023-03-27T19:43:03.333Z,62.57
2023-03-27T19:45:30.948Z,62.31
2023-03-27T19:47:58.542Z,62.87
2023-03-27T19:50:26.247Z,63.03
2023-03-27T19:53:01.490Z,63.40
2023-03-27T19:55:35.597Z,63.46
2023-03-27T19:58:03.222Z,63.93
2023-03-27T20:00:31.651Z,64.00
2023-03-27T20:02:59.509Z,64.08
2023-03-27T20:05:27.785Z,64.06
2023-03-27T20:07:55.793Z,64.12
2023-03-27T20:10:23.354Z,64.35
2023-03-27T20:12:50.909Z,64.73
2023-03-27T20:15:18.447Z,65.04
2023-03-27T20:17:46.035Z,64.93
2023-03-27T20:20:13.687Z,64.75
2023-03-27T20:22:54.160Z,65.04
2023-03-27T20:25:25.108Z,64.95
2023-03-27T20:27:52.683Z,65.01
2023-03-27T20:30:20.292Z,65.10
2023-03-27T20:32:47.886Z,65.08
2023-03-27T20:35:23.743Z,65.32
2023-03-27T20:37:52.577Z,65.00
2023-03-27T20:40:20.321Z,65.35
2023-03-27T20:42:47.889Z,65.05
2023-03-27T20:45:16.759Z,65.40
2023-03-27T20:47:44.721Z,65.44
2023-03-27T20:50:12.677Z,65.62
2023-03-27T20:52:40.344Z,65.70
2023-03-27T20:55:09.536Z,65.57
2023-03-27T20:57:38.318Z,65.49
2023-03-27T21:00:07.795Z,65.44
2023-03-27T21:02:35.470Z,65.43
2023-03-27T21:05:03.199Z,65.48
2023-03-27T21:07:31.272Z,65.45
2023-03-27T21:09:58.841Z,65.39
2023-03-27T21:12:26.761Z,65.15
2023-03-27T21:14:54.340Z,65.08
2023-03-27T21:17:21.946Z,65.46
2023-03-27T21:19:49.577Z,65.63
2023-03-27T21:22:17.141Z,65.41
2023-03-27T21:24:44.757Z,65.77
2023-03-27T21:27:12.325Z,65.63
2023-03-27T21:29:39.894Z,65.55
2023-03-27T21:32:07.567Z,65.48
2023-03-27T21:34:35.252Z,65.19
2023-03-27T21:37:03.017Z,65.31
2023-03-27T21:39:30.620Z,65.31
2023-03-27T21:41:58.249Z,65.28
2023-03-27T21:44:25.829Z,65.25
2023-03-27T21:46:53.408Z,65.46
2023-03-27T21:49:20.982Z,65.78
2023-03-27T21:51:48.541Z,65.53
2023-03-27T21:54:16.089Z,65.67
2023-03-27T21:56:43.692Z,65.85
2023-03-27T21:59:11.292Z,65.97
2023-03-27T22:01:38.938Z,66.05
2023-03-27T22:04:06.570Z,66.04
2023-03-27T22:06:34.143Z,66.09
2023-03-27T22:09:01.762Z,66.27
2023-03-27T22:11:29.479Z,66.35
2023-03-27T22:13:57.059Z,66.50
2023-03-27T22:16:25.359Z,66.52
2023-03-27T22:18:52.983Z,66.54
2023-03-27T22:21:23.674Z,66.19
2023-03-27T22:23:52.764Z,66.37
2023-03-27T22:26:23.697Z,66.10
2023-03-27T22:28:51.510Z,66.17
2023-03-27T22:31:20.282Z,66.45
2023-03-27T22:33:48.294Z,66.38
2023-03-27T22:36:16.777Z,66.48
2023-03-27T22:38:45.006Z,66.61
2023-03-27T22:41:13.833Z,66.42
2023-03-27T22:43:41.436Z,66.53
2023-03-27T22:46:12.459Z,66.34
2023-03-27T22:48:40.991Z,66.40
2023-03-27T22:51:10.085Z,66.79
2023-03-27T22:53:38.172Z,66.89
2023-03-27T22:56:07.394Z,67.09
2023-03-27T22:58:35.010Z,67.14
2023-03-27T23:01:03.811Z,67.32
2023-03-27T23:03:32.361Z,67.47
2023-03-27T23:06:00.211Z,67.57
2023-03-27T23:08:28.797Z,67.79
2023-03-27T23:11:04.429Z,67.88
2023-03-27T23:13:33.946Z,68.15
2023-03-27T23:16:01.983Z,68.57
2023-03-27T23:18:30.335Z,68.58
2023-03-27T23:21:09.196Z,69.07
2023-03-27T23:23:38.459Z,69.41
2023-03-27T23:26:06.712Z,69.43
2023-03-27T23:28:37.568Z,69.70
2023-03-27T23:31:17.071Z,69.48
2023-03-27T23:33:47.301Z,69.93
2023-03-27T23:36:20.463Z,70.11
2023-03-27T23:38:48.396Z,70.16
2023-03-27T23:41:16.540Z,70.38
2023-03-27T23:43:44.323Z,70.57
2023-03-27T23:46:12.651Z,70.79
2023-03-27T23:48:41.902Z,70.77
2023-03-27T23:51:13.487Z,70.70
2023-03-27T23:53:41.281Z,70.69
2023-03-27T23:56:09.706Z,70.83
2023-03-27T23:58:37.593Z,70.84
